Time;durP1;ratioP1;P1;durP2;ratioP2;P2;SDS_P1;SDS_P2;PMS_P1;PMS_P2;Temp;Humidity;BMP_temperature;BMP_pressure;BME280_temperature;BME280_humidity;BME280_pressure;Samples;Min_cycle;Max_cycle;Signal;HPM_P1;HPM_P2
2022/05/16 00:01:21;;;;;;;9.50;8.60;;;23.20;83.80;;;;;;6263092;27;84069;-63
2022/05/16 00:04:24;;;;;;;9.68;8.73;;;23.20;83.80;;;;;;6262258;27;84381;-64
2022/05/16 00:07:26;;;;;;;9.68;8.77;;;23.30;83.90;;;;;;6261814;27;83236;-64
2022/05/16 00:10:28;;;;;;;9.80;8.90;;;23.30;83.80;;;;;;6260086;27;83998;-64
2022/05/16 00:13:30;;;;;;;10.05;9.10;;;23.20;83.80;;;;;;6258877;27;82922;-64
2022/05/16 00:16:32;;;;;;;10.20;9.20;;;23.20;83.80;;;;;;6261956;27;84924;-64
2022/05/16 00:19:36;;;;;;;10.38;9.38;;;23.20;83.80;;;;;;6262171;27;84043;-64
2022/05/16 00:22:38;;;;;;;10.52;9.52;;;23.20;83.80;;;;;;6261520;27;84310;-64
2022/05/16 00:25:40;;;;;;;10.93;9.82;;;23.30;83.80;;;;;;6261279;27;84004;-65
2022/05/16 00:28:42;;;;;;;10.98;9.88;;;23.20;83.80;;;;;;6261715;27;84081;-64
2022/05/16 00:31:44;;;;;;;10.77;9.68;;;23.20;83.80;;;;;;6261423;27;84283;-65
2022/05/16 00:34:48;;;;;;;12.13;10.93;;;23.30;83.90;;;;;;6262040;27;84099;-64
2022/05/16 00:37:50;;;;;;;12.07;10.88;;;23.20;83.90;;;;;;6260290;27;82757;-64
2022/05/16 00:40:56;;;;;;;12.15;10.95;;;23.20;83.80;;;;;;6260000;27;83912;-64
2022/05/16 00:44:00;;;;;;;10.75;9.75;;;23.20;83.80;;;;;;6260551;27;83043;-63
2022/05/16 00:47:02;;;;;;;11.48;10.38;;;23.20;83.80;;;;;;6260709;27;85138;-64
2022/05/16 00:50:08;;;;;;;11.82;10.63;;;23.20;83.70;;;;;;6260104;27;84471;-64
2022/05/16 00:53:11;;;;;;;11.63;10.52;;;23.20;83.70;;;;;;6259597;27;84024;-64
2022/05/16 00:56:14;;;;;;;12.15;10.95;;;23.20;83.70;;;;;;6260320;27;82854;-64
2022/05/16 00:59:16;;;;;;;12.10;10.90;;;23.20;83.70;;;;;;6259262;27;84013;-64
2022/05/16 01:05:41;;;;;;;12.23;11.02;;;23.30;83.80;;;;;;6260175;27;82736;-64
2022/05/16 01:08:43;;;;;;;11.98;10.77;;;23.20;83.70;;;;;;6260284;27;83488;-64
2022/05/16 01:11:45;;;;;;;11.77;10.57;;;23.20;83.70;;;;;;6258601;27;84023;-64
2022/05/16 01:14:52;;;;;;;12.40;11.20;;;23.20;83.70;;;;;;6256695;27;83953;-64
2022/05/16 01:17:53;;;;;;;12.27;11.07;;;23.20;83.70;;;;;;6259178;27;85183;-64
2022/05/16 01:21:16;;;;;;;12.73;11.52;;;23.20;83.80;;;;;;6259633;27;83453;-64
2022/05/16 01:24:20;;;;;;;12.07;10.93;;;23.20;83.80;;;;;;6259830;27;83265;-64
2022/05/16 01:27:22;;;;;;;12.07;10.88;;;23.20;83.80;;;;;;6259064;27;84337;-64
2022/05/16 01:30:28;;;;;;;12.05;10.85;;;23.20;83.80;;;;;;6259513;27;83980;-64
2022/05/16 01:33:30;;;;;;;10.98;9.90;;;23.20;83.70;;;;;;6259812;27;84009;-64
2022/05/16 01:36:32;;;;;;;12.35;11.10;;;23.20;83.70;;;;;;6260077;27;83095;-64
2022/05/16 01:39:35;;;;;;;12.13;10.93;;;23.20;83.70;;;;;;6259197;27;85083;-63
2022/05/16 01:42:37;;;;;;;12.02;10.93;;;23.20;83.70;;;;;;6259180;27;84030;-64
2022/05/16 01:45:41;;;;;;;11.90;10.70;;;23.20;83.70;;;;;;6259485;27;84410;-64
2022/05/16 01:48:43;;;;;;;11.48;10.38;;;23.20;83.70;;;;;;6258587;27;87410;-64
2022/05/16 01:51:46;;;;;;;12.10;10.90;;;23.20;83.60;;;;;;6258917;27;84348;-64
2022/05/16 01:54:49;;;;;;;12.30;11.00;;;23.20;83.60;;;;;;6259051;27;83038;-64
2022/05/16 01:57:51;;;;;;;11.52;10.43;;;23.20;83.60;;;;;;6258981;27;82957;-64
2022/05/16 02:00:53;;;;;;;12.25;11.05;;;23.20;83.60;;;;;;6258852;27;84011;-64
2022/05/16 02:03:56;;;;;;;12.02;10.82;;;23.20;83.70;;;;;;6258464;27;84206;-64
2022/05/16 02:06:57;;;;;;;12.25;11.05;;;23.20;83.70;;;;;;6258670;27;84175;-64
2022/05/16 02:10:01;;;;;;;12.27;11.07;;;23.20;83.80;;;;;;6258462;27;83637;-64
2022/05/16 02:13:04;;;;;;;12.90;11.60;;;23.20;83.80;;;;;;6259122;27;84088;-64
2022/05/16 02:16:06;;;;;;;12.25;11.02;;;23.20;83.80;;;;;;6257962;27;83922;-64
2022/05/16 02:19:08;;;;;;;11.40;10.30;;;23.20;83.80;;;;;;6257967;27;84813;-64
2022/05/16 02:25:33;;;;;;;12.10;10.90;;;23.20;83.70;;;;;;6258729;28;82747;-64
2022/05/16 02:28:35;;;;;;;11.40;10.30;;;23.20;83.70;;;;;;6258359;27;84015;-64
2022/05/16 02:31:37;;;;;;;11.38;10.20;;;23.20;83.60;;;;;;6255883;27;82902;-64
2022/05/16 02:34:40;;;;;;;11.63;10.52;;;23.20;83.70;;;;;;6248031;28;84075;-64
2022/05/16 02:37:43;;;;;;;11.25;10.15;;;23.20;83.60;;;;;;6255466;27;82931;-64
2022/05/16 02:40:47;;;;;;;11.25;10.15;;;23.20;83.60;;;;;;6259046;27;83313;-64
2022/05/16 02:43:49;;;;;;;11.23;10.13;;;23.20;83.60;;;;;;6258416;27;83053;-64
2022/05/16 02:46:52;;;;;;;10.02;9.00;;;23.20;83.60;;;;;;6257270;27;84052;-64
2022/05/16 02:49:54;;;;;;;10.80;9.70;;;23.20;83.60;;;;;;6261143;27;84962;-64
2022/05/16 02:52:56;;;;;;;10.80;9.70;;;23.20;83.60;;;;;;6258288;27;84059;-64
2022/05/16 02:56:00;;;;;;;10.88;9.77;;;23.20;83.70;;;;;;6260121;27;83982;-64
2022/05/16 02:59:02;;;;;;;11.57;10.43;;;23.20;83.80;;;;;;6253146;27;83723;-63
2022/05/16 03:02:06;;;;;;;11.02;9.93;;;23.20;83.80;;;;;;6251040;27;84319;-64
2022/05/16 03:05:09;;;;;;;10.25;9.25;;;23.20;83.70;;;;;;6263633;27;83995;-64
2022/05/16 03:08:11;;;;;;;10.45;9.48;;;23.20;83.70;;;;;;6262976;27;84013;-64
2022/05/16 03:11:14;;;;;;;10.15;9.18;;;23.20;83.60;;;;;;6263972;27;83298;-64
2022/05/16 03:14:17;;;;;;;10.38;9.38;;;23.20;83.50;;;;;;6263645;27;84081;-64
2022/05/16 03:17:19;;;;;;;10.07;9.07;;;23.20;83.50;;;;;;6263570;27;84173;-64
2022/05/16 03:20:21;;;;;;;9.70;8.80;;;23.10;83.50;;;;;;6262248;27;84893;-64
2022/05/16 03:23:23;;;;;;;10.23;9.23;;;23.20;83.50;;;;;;6262733;27;84136;-63
2022/05/16 03:26:26;;;;;;;10.88;9.77;;;23.20;83.50;;;;;;6262506;27;84146;-64
2022/05/16 03:29:29;;;;;;;10.13;9.13;;;23.10;83.40;;;;;;6263145;27;84014;-64
2022/05/16 03:32:31;;;;;;;9.45;8.55;;;23.10;83.40;;;;;;6262739;27;84238;-64
2022/05/16 03:35:33;;;;;;;9.73;8.82;;;23.20;83.50;;;;;;6250750;27;84252;-64
2022/05/16 03:41:57;;;;;;;10.15;9.15;;;23.10;83.50;;;;;;6263616;27;81607;-64
2022/05/16 03:44:59;;;;;;;9.50;8.60;;;23.10;83.60;;;;;;6262579;27;83842;-64
2022/05/16 03:48:01;;;;;;;9.43;8.52;;;23.20;83.70;;;;;;6261496;27;84067;-64
2022/05/16 03:51:05;;;;;;;9.52;8.63;;;23.20;83.70;;;;;;6261935;27;84166;-64
2022/05/16 03:54:07;;;;;;;9.13;8.23;;;23.20;83.70;;;;;;6262267;27;84092;-65
2022/05/16 03:57:10;;;;;;;9.30;8.40;;;23.20;83.60;;;;;;6261953;27;82922;-64
2022/05/16 04:00:16;;;;;;;9.18;8.27;;;23.20;83.50;;;;;;6261660;27;83891;-64
2022/05/16 04:03:18;;;;;;;9.32;8.43;;;23.20;83.50;;;;;;6262176;27;82954;-64
2022/05/16 04:06:21;;;;;;;9.15;8.25;;;23.10;83.50;;;;;;6262140;27;82907;-64
2022/05/16 04:09:23;;;;;;;9.23;8.32;;;23.10;83.50;;;;;;6261965;27;84249;-64
2022/05/16 04:12:26;;;;;;;9.00;8.20;;;23.10;83.40;;;;;;6262230;27;83258;-64
2022/05/16 04:15:28;;;;;;;8.93;8.13;;;23.20;83.50;;;;;;6260489;27;83669;-64
2022/05/16 04:18:31;;;;;;;8.82;8.02;;;23.10;83.50;;;;;;6252217;27;82911;-63
2022/05/16 04:21:33;;;;;;;9.18;8.27;;;23.10;83.40;;;;;;6257658;27;85095;-64
2022/05/16 04:24:35;;;;;;;8.73;7.93;;;23.20;83.50;;;;;;6245071;27;84012;-64
2022/05/16 04:27:39;;;;;;;8.82;8.02;;;23.20;83.50;;;;;;6250223;27;83309;-64
2022/05/16 04:30:41;;;;;;;9.25;8.35;;;23.10;83.40;;;;;;6256848;27;83708;-64
2022/05/16 04:33:43;;;;;;;8.70;7.90;;;23.20;83.70;;;;;;6253229;27;83997;-64
2022/05/16 04:36:45;;;;;;;9.00;8.15;;;23.10;83.70;;;;;;6261488;27;82869;-64
2022/05/16 04:39:47;;;;;;;8.07;7.38;;;23.10;83.60;;;;;;6261231;27;83304;-64
2022/05/16 04:42:50;;;;;;;8.20;7.40;;;23.10;83.60;;;;;;6250641;27;83342;-64
2022/05/16 04:45:52;;;;;;;8.60;7.80;;;23.20;83.60;;;;;;6260953;27;82989;-64
2022/05/16 04:48:54;;;;;;;8.23;7.45;;;23.10;83.50;;;;;;6261194;27;84004;-64
2022/05/16 04:51:56;;;;;;;8.02;7.30;;;23.10;83.50;;;;;;6260646;27;83857;-64
2022/05/16 04:54:58;;;;;;;8.25;7.43;;;23.20;83.50;;;;;;6260709;27;84305;-64
2022/05/16 04:58:02;;;;;;;8.13;7.32;;;23.20;83.50;;;;;;6261062;27;84020;-63
2022/05/16 05:01:04;;;;;;;8.63;7.82;;;23.20;83.40;;;;;;6261735;27;84155;-64
2022/05/16 05:04:06;;;;;;;8.32;7.53;;;23.10;83.30;;;;;;6260853;27;83945;-64
2022/05/16 05:07:09;;;;;;;7.95;7.15;;;23.20;83.50;;;;;;6260525;27;82905;-64
2022/05/16 05:16:54;;;;;;;7.75;7.05;;;23.30;83.50;;;;;;6260382;27;81998;-63
2022/05/16 05:19:56;;;;;;;7.53;6.82;;;23.20;83.40;;;;;;6247519;27;84478;-64
2022/05/16 05:22:58;;;;;;;7.88;7.18;;;23.30;83.40;;;;;;6253312;27;85443;-64
2022/05/16 05:26:00;;;;;;;7.60;6.90;;;23.30;83.40;;;;;;6254757;28;84039;-64
2022/05/16 05:29:04;;;;;;;8.13;7.43;;;23.30;83.30;;;;;;6259993;27;84100;-64
2022/05/16 05:32:08;;;;;;;7.13;6.43;;;23.30;83.30;;;;;;6261140;27;83868;-64
2022/05/16 05:35:10;;;;;;;7.30;6.60;;;23.30;83.30;;;;;;6261000;27;83968;-64
2022/05/16 05:38:12;;;;;;;7.30;6.60;;;23.30;83.30;;;;;;6260740;27;84113;-63
2022/05/16 05:41:14;;;;;;;7.60;6.80;;;23.30;83.30;;;;;;6260571;27;83942;-64
2022/05/16 05:44:18;;;;;;;7.63;6.93;;;23.30;83.30;;;;;;6247064;27;83329;-64
2022/05/16 05:47:20;;;;;;;6.95;6.32;;;23.40;83.30;;;;;;6260358;27;84012;-63
2022/05/16 05:50:22;;;;;;;6.50;5.95;;;23.40;83.30;;;;;;6259251;27;84064;-64
2022/05/16 05:53:26;;;;;;;6.80;6.18;;;23.30;83.30;;;;;;6259590;27;84998;-63
2022/05/16 05:56:28;;;;;;;6.65;6.05;;;23.30;83.30;;;;;;6249701;27;82989;-64
2022/05/16 05:59:32;;;;;;;6.80;6.20;;;23.30;83.30;;;;;;6260148;27;83971;-64
2022/05/16 06:02:34;;;;;;;6.95;6.35;;;23.40;83.40;;;;;;6259841;27;85254;-64
2022/05/16 06:05:36;;;;;;;6.90;6.30;;;23.40;83.40;;;;;;6259243;27;83763;-64
2022/05/16 06:08:38;;;;;;;7.10;6.40;;;23.40;83.50;;;;;;6246320;27;84028;-64
2022/05/16 06:11:41;;;;;;;6.80;6.20;;;23.30;83.40;;;;;;6259711;27;84006;-64
2022/05/16 06:14:44;;;;;;;6.93;6.32;;;23.40;83.50;;;;;;6260366;27;83377;-63
2022/05/16 06:17:47;;;;;;;6.95;6.25;;;23.40;83.50;;;;;;6247949;27;83971;-63
2022/05/16 06:20:49;;;;;;;6.90;6.30;;;23.40;83.50;;;;;;6259574;27;83708;-64
2022/05/16 06:23:51;;;;;;;6.40;5.80;;;23.40;83.50;;;;;;6259047;27;84905;-63
2022/05/16 06:26:53;;;;;;;6.10;5.60;;;23.40;83.50;;;;;;6258968;27;83014;-64
2022/05/16 06:29:57;;;;;;;5.88;5.38;;;23.40;83.50;;;;;;6259246;27;84072;-64
2022/05/16 06:32:59;;;;;;;6.05;5.55;;;23.40;83.50;;;;;;6259303;27;84043;-64
2022/05/16 06:36:02;;;;;;;6.63;6.03;;;23.40;83.40;;;;;;6259582;27;84010;-64
2022/05/16 06:39:04;;;;;;;6.30;5.70;;;23.40;83.40;;;;;;6259627;27;82929;-64
2022/05/16 06:42:07;;;;;;;6.88;6.18;;;23.40;83.40;;;;;;6259601;27;83844;-64
2022/05/16 06:45:11;;;;;;;6.53;5.93;;;23.40;83.50;;;;;;6260036;27;83715;-64
2022/05/16 06:48:14;;;;;;;6.78;6.18;;;23.40;83.50;;;;;;6260250;27;85777;-64
2022/05/16 06:51:16;;;;;;;6.28;5.68;;;23.40;83.50;;;;;;6259608;27;83951;-64
2022/05/16 06:54:18;;;;;;;6.30;5.70;;;23.40;83.50;;;;;;6258919;27;83953;-64
2022/05/16 06:57:20;;;;;;;6.22;5.63;;;23.40;83.60;;;;;;6259470;27;84281;-64
2022/05/16 07:00:24;;;;;;;5.97;5.47;;;23.40;83.60;;;;;;6259316;27;85533;-64
2022/05/16 07:03:27;;;;;;;6.43;5.85;;;23.40;83.70;;;;;;6259372;27;82798;-64
2022/05/16 07:06:29;;;;;;;6.72;6.03;;;23.40;83.70;;;;;;6259542;27;84168;-63
2022/05/16 07:09:31;;;;;;;6.40;5.80;;;23.40;83.70;;;;;;6258834;27;83117;-64
2022/05/16 07:12:33;;;;;;;6.50;5.90;;;23.40;83.60;;;;;;6258621;27;84042;-64
2022/05/16 07:15:36;;;;;;;6.05;5.55;;;23.40;83.60;;;;;;6259823;27;83393;-64
2022/05/16 07:18:38;;;;;;;6.10;5.57;;;23.40;83.60;;;;;;6245860;27;84049;-64
2022/05/16 07:21:40;;;;;;;5.97;5.47;;;23.40;83.60;;;;;;6257897;27;84217;-64
2022/05/16 07:24:44;;;;;;;6.35;5.75;;;23.40;83.60;;;;;;6244440;27;84945;-64
2022/05/16 07:27:59;;;;;;;6.20;5.60;;;23.40;83.60;;;;;;6258813;27;84054;-64
2022/05/16 07:31:03;;;;;;;6.07;5.50;;;23.40;83.60;;;;;;6258655;27;84057;-64
2022/05/16 07:34:05;;;;;;;6.30;5.70;;;23.40;83.60;;;;;;6247536;27;83993;-64
2022/05/16 07:37:09;;;;;;;6.15;5.55;;;23.40;83.50;;;;;;6263210;27;83973;-64
2022/05/16 07:40:11;;;;;;;5.85;5.35;;;23.40;83.60;;;;;;6262812;27;83932;-64
2022/05/16 07:43:14;;;;;;;5.78;5.28;;;23.40;83.70;;;;;;6262730;27;84218;-64
2022/05/16 07:46:17;;;;;;;6.32;5.72;;;23.30;83.70;;;;;;6254707;27;83268;-64
2022/05/16 07:49:20;;;;;;;5.95;5.45;;;23.40;83.70;;;;;;6259043;27;84366;-64
2022/05/16 07:52:22;;;;;;;5.70;5.20;;;23.30;83.70;;;;;;6256982;27;84070;-63
2022/05/16 07:55:26;;;;;;;5.45;4.90;;;23.40;83.80;;;;;;6255981;27;84944;-64
2022/05/16 07:58:28;;;;;;;5.97;5.47;;;23.40;83.80;;;;;;6262536;27;82860;-64
2022/05/16 08:01:32;;;;;;;5.20;4.80;;;23.40;83.80;;;;;;6262478;27;84025;-64
2022/05/16 08:04:34;;;;;;;5.85;5.35;;;23.40;83.80;;;;;;6260477;27;83998;-64
2022/05/16 08:10:28;;;;;;;5.70;5.20;;;23.40;83.80;;;;;;6250693;27;82939;-64
2022/05/16 08:10:58;;;;;;;5.50;5.00;;;23.40;83.80;;;;;;6262160;27;83477;-63
2022/05/16 08:14:00;;;;;;;5.07;4.68;;;23.40;83.80;;;;;;6262239;27;84222;-63
2022/05/16 08:17:04;;;;;;;5.45;4.95;;;23.40;83.80;;;;;;6262759;27;83320;-64
2022/05/16 08:20:08;;;;;;;5.97;5.40;;;23.40;83.70;;;;;;6262538;27;83965;-64
2022/05/16 08:23:11;;;;;;;5.35;4.85;;;23.40;83.80;;;;;;6261761;27;84138;-64
2022/05/16 08:26:13;;;;;;;5.57;4.97;;;23.40;83.70;;;;;;6261497;27;84925;-64
2022/05/16 08:29:15;;;;;;;5.57;5.07;;;23.40;83.70;;;;;;6262217;27;83940;-64
2022/05/16 08:32:23;;;;;;;5.57;5.07;;;23.40;83.70;;;;;;6261841;27;84098;-64
2022/05/16 08:35:25;;;;;;;5.45;4.80;;;23.40;84.70;;;;;;6261632;27;83927;-64
2022/05/16 08:41:54;;;;;;;4.95;4.55;;;23.40;83.80;;;;;;6262250;27;82000;-64
2022/05/16 08:45:01;;;;;;;5.00;4.50;;;23.40;83.90;;;;;;6261486;27;84061;-64
2022/05/16 08:48:11;;;;;;;5.18;4.68;;;23.40;83.90;;;;;;6261531;27;83275;-64
2022/05/16 08:51:18;;;;;;;4.85;4.45;;;23.40;83.90;;;;;;6260643;27;83985;-64
2022/05/16 08:54:30;;;;;;;5.22;4.72;;;23.40;83.90;;;;;;6238327;27;84026;-64
2022/05/16 08:57:35;;;;;;;4.88;4.47;;;23.40;83.90;;;;;;6259030;27;84992;-64
2022/05/16 09:00:47;;;;;;;5.18;4.68;;;23.40;83.90;;;;;;6258438;27;84056;-64
2022/05/16 09:03:54;;;;;;;4.88;4.47;;;23.40;83.90;;;;;;6260792;27;84198;-63
2022/05/16 09:07:01;;;;;;;4.93;4.53;;;23.40;83.90;;;;;;6261297;27;83971;-64
2022/05/16 09:10:06;;;;;;;4.97;4.50;;;23.40;83.90;;;;;;6247360;27;84044;-64
2022/05/16 09:13:18;;;;;;;4.72;4.32;;;23.40;84.00;;;;;;6260841;27;84486;-64
2022/05/16 09:16:34;;;;;;;5.10;4.60;;;23.40;84.00;;;;;;6261252;27;84150;-63
2022/05/16 09:19:53;;;;;;;4.50;4.10;;;23.40;84.00;;;;;;6261448;27;83314;-64
2022/05/16 09:23:02;;;;;;;4.70;4.30;;;23.40;84.10;;;;;;6260835;27;84040;-64
2022/05/16 09:26:10;;;;;;;4.72;4.32;;;23.40;84.20;;;;;;6260578;27;84074;-64
2022/05/16 09:29:23;;;;;;;4.57;4.18;;;23.40;84.20;;;;;;6254790;27;85010;-63
2022/05/16 09:32:29;;;;;;;4.55;4.18;;;23.40;84.20;;;;;;6255553;27;84289;-65
2022/05/16 09:35:40;;;;;;;4.85;4.35;;;23.40;84.30;;;;;;6260466;27;84163;-64
2022/05/16 09:38:45;;;;;;;4.40;4.00;;;23.40;84.30;;;;;;6260266;27;84263;-64
2022/05/16 09:41:55;;;;;;;4.60;4.20;;;23.40;84.30;;;;;;6256003;27;84052;-63
2022/05/16 09:45:01;;;;;;;4.43;4.03;;;23.40;84.40;;;;;;6251608;27;83959;-65
2022/05/16 09:48:16;;;;;;;4.78;4.25;;;23.40;84.30;;;;;;6260679;27;84124;-64
2022/05/16 09:51:22;;;;;;;4.55;4.15;;;23.40;84.30;;;;;;6261406;27;82191;-64
2022/05/16 09:54:27;;;;;;;4.40;4.00;;;23.40;84.40;;;;;;6260157;27;83820;-64
2022/05/16 09:57:32;;;;;;;4.63;4.22;;;23.40;84.30;;;;;;6260021;27;83997;-64
2022/05/16 10:00:39;;;;;;;4.28;3.92;;;23.40;84.40;;;;;;6259368;27;85011;-64
2022/05/16 10:03:49;;;;;;;4.80;4.40;;;23.40;84.40;;;;;;6259873;27;83748;-64
2022/05/16 10:07:01;;;;;;;4.57;4.18;;;23.40;84.40;;;;;;6254167;27;83996;-64
2022/05/16 10:10:03;;;;;;;4.40;4.00;;;23.40;84.40;;;;;;6241490;27;83847;-64
2022/05/16 10:13:05;;;;;;;4.30;4.00;;;23.40;84.40;;;;;;6260358;27;84104;-64
2022/05/16 10:16:10;;;;;;;4.68;4.28;;;23.40;84.50;;;;;;6258745;27;84057;-64
2022/05/16 10:19:16;;;;;;;4.60;4.20;;;23.40;84.50;;;;;;6259975;27;83238;-64
2022/05/16 10:22:21;;;;;;;4.50;4.10;;;23.40;84.50;;;;;;6260177;27;82159;-64
2022/05/16 10:25:29;;;;;;;4.10;3.80;;;23.40;84.50;;;;;;6259920;27;84033;-64
2022/05/16 10:28:37;;;;;;;4.68;4.20;;;23.40;84.50;;;;;;6259216;27;84093;-63
2022/05/16 10:35:07;;;;;;;4.35;4.00;;;23.40;84.40;;;;;;6259989;27;82127;-64
2022/05/16 10:38:21;;;;;;;4.35;3.95;;;23.40;84.40;;;;;;6259522;27;83944;-64
2022/05/16 10:41:27;;;;;;;4.78;4.20;;;23.40;84.50;;;;;;6258924;27;84074;-64
2022/05/16 10:44:46;;;;;;;4.38;3.97;;;23.40;84.50;;;;;;6254380;27;83898;-63
2022/05/16 10:47:55;;;;;;;4.40;4.00;;;23.40;84.40;;;;;;6259062;27;82949;-64
2022/05/16 10:51:04;;;;;;;3.90;3.60;;;23.40;84.50;;;;;;6246074;27;83946;-64
2022/05/16 10:54:09;;;;;;;4.20;3.90;;;23.40;84.40;;;;;;6259859;27;83293;-64
2022/05/16 10:57:29;;;;;;;4.28;3.88;;;23.40;84.40;;;;;;6259069;27;84319;-64
2022/05/16 11:00:35;;;;;;;4.00;3.63;;;23.40;84.50;;;;;;6258958;27;84649;-64
2022/05/16 11:04:13;;;;;;;4.10;3.80;;;23.40;84.50;;;;;;6258809;27;83916;-64
2022/05/16 11:07:27;;;;;;;4.20;3.80;;;23.40;84.60;;;;;;6259054;27;83712;-64
2022/05/16 11:10:36;;;;;;;4.30;3.95;;;23.40;84.70;;;;;;6263466;27;84051;-64
2022/05/16 11:13:45;;;;;;;4.25;3.85;;;23.50;84.70;;;;;;6263137;27;83998;-64
2022/05/16 11:16:50;;;;;;;4.57;4.15;;;23.40;84.70;;;;;;6263254;27;83947;-64
2022/05/16 11:20:01;;;;;;;4.43;4.03;;;23.40;84.60;;;;;;6263082;27;84127;-64
2022/05/16 11:23:11;;;;;;;4.22;3.85;;;23.40;84.60;;;;;;6263404;27;84172;-64
2022/05/16 11:26:23;;;;;;;4.20;3.78;;;23.40;84.60;;;;;;6264003;27;82986;-63
2022/05/16 11:29:33;;;;;;;4.30;3.90;;;23.40;84.60;;;;;;6262944;27;84212;-64
2022/05/16 11:32:53;;;;;;;4.20;3.80;;;23.40;84.70;;;;;;6262880;27;83947;-64
2022/05/16 11:36:00;;;;;;;3.95;3.65;;;23.40;84.70;;;;;;6262227;27;84911;-64
2022/05/16 11:39:11;;;;;;;4.03;3.72;;;23.40;84.70;;;;;;6263302;27;84070;-64
2022/05/16 11:42:22;;;;;;;4.20;3.80;;;23.50;84.80;;;;;;6262901;27;84018;-64
2022/05/16 11:45:39;;;;;;;4.25;3.83;;;23.50;84.90;;;;;;6262327;27;82931;-64
2022/05/16 11:48:51;;;;;;;4.20;3.80;;;23.40;84.80;;;;;;6262420;27;82980;-64
2022/05/16 11:52:06;;;;;;;4.20;3.90;;;23.40;84.90;;;;;;6263024;27;83058;-65
2022/05/16 12:02:11;;;;;;;3.80;3.50;;;23.50;85.00;;;;;;6256254;27;81979;-64
2022/05/16 12:05:34;;;;;;;4.50;4.10;;;23.40;84.90;;;;;;6256048;27;84083;-64
2022/05/16 12:08:46;;;;;;;4.35;3.95;;;23.40;84.90;;;;;;6245697;27;85102;-64
2022/05/16 12:11:55;;;;;;;4.20;3.80;;;23.40;84.90;;;;;;6262055;27;84089;-64
2022/05/16 12:15:19;;;;;;;4.30;3.90;;;23.40;84.90;;;;;;6262202;27;83805;-64
2022/05/16 12:18:35;;;;;;;3.97;3.67;;;23.40;84.90;;;;;;6262236;27;84381;-63
2022/05/16 12:21:38;;;;;;;3.65;3.35;;;23.40;85.00;;;;;;6261925;27;83910;-65
2022/05/16 12:25:08;;;;;;;4.25;3.78;;;23.40;85.00;;;;;;6261494;27;82910;-64
2022/05/16 12:28:23;;;;;;;3.53;3.22;;;23.40;85.00;;;;;;6261651;27;82870;-63
2022/05/16 12:31:41;;;;;;;3.92;3.63;;;23.40;85.00;;;;;;6262281;27;83338;-64
2022/05/16 12:34:48;;;;;;;4.00;3.70;;;23.40;85.00;;;;;;6249345;27;84328;-64
2022/05/16 12:37:50;;;;;;;3.70;3.40;;;23.40;85.10;;;;;;6249031;27;87456;-64
2022/05/16 12:41:44;;;;;;;4.20;3.90;;;23.40;85.00;;;;;;6260663;27;85005;-64
2022/05/16 12:44:54;;;;;;;3.92;3.53;;;23.50;85.20;;;;;;6252469;27;83912;-64
2022/05/16 12:48:26;;;;;;;3.78;3.47;;;23.40;85.10;;;;;;6261405;27;83148;-64
2022/05/16 12:51:52;;;;;;;3.90;3.60;;;23.40;85.10;;;;;;6247129;27;84010;-64
2022/05/16 12:55:18;;;;;;;3.90;3.60;;;23.50;85.20;;;;;;6260374;27;84124;-65
2022/05/16 12:58:27;;;;;;;3.70;3.40;;;23.50;85.10;;;;;;6252357;27;84038;-64
2022/05/16 13:01:37;;;;;;;4.00;3.60;;;23.40;85.00;;;;;;6260920;27;83557;-64
2022/05/16 13:04:55;;;;;;;4.00;3.60;;;23.40;85.00;;;;;;6261204;27;82188;-64
2022/05/16 13:08:26;;;;;;;4.15;3.75;;;23.40;85.00;;;;;;6260992;27;83984;-64
2022/05/16 13:11:40;;;;;;;3.83;3.53;;;23.50;85.10;;;;;;6260838;27;84030;-64
2022/05/16 13:14:53;;;;;;;3.95;3.65;;;23.40;85.00;;;;;;6260572;27;84973;-64
2022/05/16 13:17:58;;;;;;;3.80;3.50;;;23.50;85.20;;;;;;6260751;27;83793;-64
2022/05/16 13:21:05;;;;;;;3.88;3.58;;;23.40;85.10;;;;;;6260914;27;83921;-64
2022/05/16 13:24:09;;;;;;;3.75;3.45;;;23.50;85.20;;;;;;6260553;27;84294;-64
2022/05/16 13:30:37;;;;;;;4.00;3.70;;;23.40;85.30;;;;;;6254700;27;82274;-64
2022/05/16 13:33:41;;;;;;;3.90;3.60;;;23.50;85.40;;;;;;6239395;27;84118;-64
2022/05/16 13:36:46;;;;;;;4.15;3.75;;;23.50;85.40;;;;;;6261398;27;83335;-64
2022/05/16 13:39:51;;;;;;;3.80;3.50;;;23.40;85.40;;;;;;6260291;27;82804;-64
2022/05/16 13:42:54;;;;;;;3.90;3.60;;;23.40;85.40;;;;;;6260685;27;84025;-64
2022/05/16 13:46:00;;;;;;;3.65;3.35;;;23.50;85.40;;;;;;6259394;27;84188;-63
2022/05/16 13:49:05;;;;;;;3.38;3.08;;;23.50;85.40;;;;;;6260665;27;84036;-63
2022/05/16 13:52:17;;;;;;;4.53;3.83;;;23.50;85.40;;;;;;6259622;27;84098;-65
2022/05/16 13:55:21;;;;;;;4.25;3.95;;;23.50;85.50;;;;;;6243909;28;84064;-64
2022/05/16 13:58:23;;;;;;;4.40;3.47;;;23.50;85.70;;;;;;6254637;27;82913;-64
2022/05/16 14:01:25;;;;;;;4.07;3.72;;;23.40;85.70;;;;;;6255923;27;84338;-64
2022/05/16 14:04:31;;;;;;;4.05;3.65;;;23.50;85.90;;;;;;6256406;27;82952;-65
2022/05/16 14:07:35;;;;;;;3.85;3.55;;;23.40;86.00;;;;;;6256347;27;83250;-64
2022/05/16 14:10:38;;;;;;;3.70;3.40;;;23.50;86.10;;;;;;6253379;27;84361;-64
2022/05/16 14:13:44;;;;;;;3.80;3.50;;;23.50;86.20;;;;;;6255645;27;84546;-64
2022/05/16 14:16:51;;;;;;;3.95;3.35;;;23.50;86.40;;;;;;6255220;27;85073;-64
2022/05/16 14:19:54;;;;;;;3.70;3.40;;;23.40;86.60;;;;;;6255379;27;83950;-65
2022/05/16 14:22:59;;;;;;;3.97;3.63;;;23.50;86.60;;;;;;6255731;27;83017;-64
2022/05/16 14:26:18;;;;;;;3.72;3.42;;;23.50;86.70;;;;;;6255782;27;82778;-64
2022/05/16 14:29:22;;;;;;;4.28;3.70;;;23.50;86.60;;;;;;6256069;27;84052;-64
2022/05/16 14:32:24;;;;;;;3.80;3.50;;;23.50;86.90;;;;;;6256026;27;84781;-65
2022/05/16 14:35:28;;;;;;;3.95;3.60;;;23.50;86.90;;;;;;6255189;27;84024;-64
2022/05/16 14:38:48;;;;;;;3.90;3.60;;;23.50;87.00;;;;;;6256451;27;83004;-65
2022/05/16 14:41:55;;;;;;;3.80;3.50;;;23.50;87.10;;;;;;6244477;27;83960;-64
2022/05/16 14:45:06;;;;;;;3.88;3.42;;;23.50;87.20;;;;;;6254294;27;84292;-65
2022/05/16 14:48:08;;;;;;;4.00;3.60;;;23.50;87.30;;;;;;6259245;27;84661;-63
2022/05/16 14:51:13;;;;;;;3.80;3.50;;;23.50;87.40;;;;;;6259748;27;83956;-64
2022/05/16 14:54:22;;;;;;;3.72;3.42;;;23.50;87.60;;;;;;6259858;27;83957;-64
2022/05/16 14:57:24;;;;;;;3.75;3.45;;;23.50;87.80;;;;;;6263400;27;83728;-65
2022/05/16 15:04:04;;;;;;;3.60;3.30;;;23.50;88.90;;;;;;6260414;28;82767;-65
2022/05/16 15:07:07;;;;;;;3.80;3.50;;;23.50;89.10;;;;;;6251589;27;84305;-65
2022/05/16 15:10:13;;;;;;;4.05;3.70;;;23.50;88.80;;;;;;6251673;27;83437;-64
2022/05/16 15:13:15;;;;;;;3.85;3.42;;;23.60;88.60;;;;;;6262489;27;84098;-65
2022/05/16 15:16:17;;;;;;;4.78;3.53;;;23.50;88.20;;;;;;6262768;27;84153;-65
2022/05/16 15:19:20;;;;;;;3.88;3.30;;;23.60;88.00;;;;;;6262296;27;83918;-65
2022/05/16 15:22:22;;;;;;;3.75;3.45;;;23.60;88.00;;;;;;6262938;27;83889;-65
2022/05/16 15:25:25;;;;;;;3.90;3.45;;;23.60;87.90;;;;;;6262933;27;84017;-65
2022/05/16 15:28:27;;;;;;;3.72;3.42;;;23.60;87.80;;;;;;6263121;27;83873;-64
2022/05/16 15:31:31;;;;;;;3.65;3.35;;;23.50;87.70;;;;;;6268240;27;84400;-65
2022/05/16 15:34:34;;;;;;;4.07;3.78;;;23.50;87.60;;;;;;6260028;27;83880;-63
2022/05/16 15:37:36;;;;;;;3.55;3.20;;;23.50;88.10;;;;;;6261650;27;83994;-63
2022/05/16 15:40:42;;;;;;;3.55;3.25;;;23.50;88.10;;;;;;6261581;27;83212;-63
2022/05/16 15:43:44;;;;;;;3.95;3.63;;;23.60;88.10;;;;;;6261775;27;84142;-62
2022/05/16 15:46:46;;;;;;;3.85;3.05;;;23.50;87.90;;;;;;6261649;27;84067;-63
2022/05/16 15:49:50;;;;;;;3.60;3.30;;;23.50;87.70;;;;;;6258924;28;85191;-64
2022/05/16 15:52:52;;;;;;;3.53;3.22;;;23.60;87.90;;;;;;6261921;27;83996;-64
2022/05/16 15:55:57;;;;;;;3.40;3.10;;;23.60;88.10;;;;;;6260892;27;84060;-65
2022/05/16 15:58:59;;;;;;;3.25;3.05;;;23.60;88.20;;;;;;6261597;27;83862;-65
2022/05/16 16:02:01;;;;;;;3.45;3.15;;;23.60;88.10;;;;;;6260737;27;83878;-64
2022/05/16 16:08:39;;;;;;;3.30;3.00;;;23.60;87.60;;;;;;6259779;27;82511;-64
2022/05/16 16:11:43;;;;;;;4.25;3.22;;;23.60;87.50;;;;;;6261463;27;81269;-65
2022/05/16 16:14:45;;;;;;;3.30;3.00;;;23.60;87.40;;;;;;6255787;27;84125;-65
2022/05/16 16:17:47;;;;;;;3.20;3.00;;;23.60;87.30;;;;;;6255384;27;84283;-65
2022/05/16 16:20:51;;;;;;;4.10;3.17;;;23.60;87.40;;;;;;6261209;27;84923;-64
2022/05/16 16:23:53;;;;;;;3.40;3.10;;;23.60;87.40;;;;;;6256737;27;84037;-65
2022/05/16 16:26:56;;;;;;;3.70;3.30;;;23.60;87.40;;;;;;6262106;27;82933;-65
2022/05/16 16:29:58;;;;;;;3.83;3.17;;;23.60;87.20;;;;;;6249410;27;84125;-64
2022/05/16 16:33:00;;;;;;;3.40;3.10;;;23.60;87.20;;;;;;6262438;27;83957;-65
2022/05/16 16:36:03;;;;;;;3.72;3.13;;;23.60;87.20;;;;;;6262458;27;84363;-65
2022/05/16 16:39:06;;;;;;;3.47;3.17;;;23.60;87.20;;;;;;6262037;27;84197;-63
2022/05/16 16:42:10;;;;;;;4.07;3.10;;;23.60;87.20;;;;;;6262713;27;83297;-65